createdAt,value
2023-02-22T00:01:47.564Z,13.10
2023-02-22T00:04:19.367Z,13.08
2023-02-22T00:06:47.298Z,13.05
2023-02-22T00:09:20.456Z,13.07
2023-02-22T00:11:48.748Z,13.07
2023-02-22T00:14:20.269Z,13.07
2023-02-22T00:16:48.265Z,13.05
2023-02-22T00:19:17.481Z,13.04
2023-02-22T00:21:45.354Z,13.03
2023-02-22T00:24:23.667Z,13.04
2023-02-22T00:26:52.501Z,13.04
2023-02-22T00:29:21.858Z,13.05
2023-02-22T00:31:52.176Z,13.07
2023-02-22T00:34:23.374Z,13.09
2023-02-22T00:36:51.383Z,13.10
2023-02-22T00:39:19.260Z,13.12
2023-02-22T00:41:47.130Z,13.12
2023-02-22T00:44:15.034Z,13.13
2023-02-22T00:46:42.890Z,13.13
2023-02-22T00:49:11.020Z,13.13
2023-02-22T00:51:40.289Z,13.15
2023-02-22T00:54:08.163Z,13.12
2023-02-22T00:56:36.122Z,13.18
2023-02-22T00:59:04.041Z,13.18
2023-02-22T01:01:32.227Z,13.18
2023-02-22T01:04:00.254Z,13.15
2023-02-22T01:06:29.336Z,13.14
2023-02-22T01:08:58.574Z,13.13
2023-02-22T01:11:26.449Z,13.12
2023-02-22T01:13:55.369Z,13.11
2023-02-22T01:16:23.295Z,13.13
2023-02-22T01:18:51.290Z,13.12
2023-02-22T01:21:19.243Z,13.13
2023-02-22T01:23:47.901Z,13.17
2023-02-22T01:26:17.177Z,13.12
2023-02-22T01:28:45.076Z,13.11
2023-02-22T01:31:13.633Z,13.11
2023-02-22T01:33:41.737Z,13.13
2023-02-22T01:36:11.472Z,13.15
2023-02-22T01:38:39.652Z,13.16
2023-02-22T01:41:07.536Z,13.17
2023-02-22T01:43:36.782Z,13.18
2023-02-22T01:46:05.041Z,13.18
2023-02-22T01:48:38.534Z,13.19
2023-02-22T01:51:10.848Z,13.20
2023-02-22T01:53:41.503Z,13.19
2023-02-22T01:56:09.398Z,13.19
2023-02-22T01:58:40.926Z,13.19
2023-02-22T02:01:08.847Z,13.18
2023-02-22T02:03:37.510Z,13.20
2023-02-22T02:06:06.572Z,13.20
2023-02-22T02:08:37.230Z,13.22
2023-02-22T02:11:08.687Z,13.23
2023-02-22T02:13:38.533Z,13.24
2023-02-22T02:16:06.763Z,13.22
2023-02-22T02:18:34.646Z,13.23
2023-02-22T02:21:35.003Z,13.23
2023-02-22T02:24:34.473Z,13.21
2023-02-22T02:27:16.382Z,13.20
2023-02-22T02:30:12.664Z,13.20
2023-02-22T02:32:53.876Z,13.15
2023-02-22T02:35:26.417Z,13.12
2023-02-22T02:37:57.560Z,13.15
2023-02-22T02:40:26.820Z,13.15
2023-02-22T02:42:59.246Z,13.16
2023-02-22T02:45:29.385Z,13.08
2023-02-22T02:48:01.567Z,13.12
2023-02-22T02:50:31.264Z,13.11
2023-02-22T02:53:01.341Z,13.12
2023-02-22T02:55:29.668Z,13.13
2023-02-22T02:57:57.562Z,13.13
2023-02-22T03:00:27.115Z,13.10
2023-02-22T03:03:03.371Z,13.10
2023-02-22T03:05:43.552Z,13.12
2023-02-22T03:08:14.046Z,13.08
2023-02-22T03:10:50.407Z,13.08
2023-02-22T03:13:21.342Z,13.07
2023-02-22T03:15:52.553Z,13.12
2023-02-22T03:18:29.050Z,13.10
2023-02-22T03:21:00.642Z,13.06
2023-02-22T03:23:30.335Z,13.05
2023-02-22T03:26:00.432Z,13.07
2023-02-22T03:28:28.537Z,13.06
2023-02-22T03:30:59.105Z,13.04
2023-02-22T03:33:33.695Z,13.05
2023-02-22T03:36:04.235Z,13.05
2023-02-22T03:38:33.400Z,13.05
2023-02-22T03:41:02.404Z,13.07
2023-02-22T03:43:31.703Z,13.05
2023-02-22T03:45:59.705Z,13.10
2023-02-22T03:48:32.733Z,13.14
2023-02-22T03:51:04.483Z,13.16
2023-02-22T03:53:32.427Z,13.12
2023-02-22T03:56:00.327Z,13.20
2023-02-22T03:58:29.067Z,13.23
2023-02-22T04:00:57.195Z,13.26
2023-02-22T04:03:25.106Z,13.29
2023-02-22T04:05:56.004Z,13.31
2023-02-22T04:08:23.969Z,13.29
2023-02-22T04:10:51.875Z,13.29
2023-02-22T04:13:19.744Z,13.22
2023-02-22T04:15:47.806Z,13.16
2023-02-22T04:18:15.690Z,13.12
2023-02-22T04:20:44.745Z,13.05
2023-02-22T04:23:14.024Z,13.00
2023-02-22T04:25:41.903Z,13.00
2023-02-22T04:28:09.777Z,13.07
2023-02-22T04:30:37.782Z,13.09
2023-02-22T04:33:05.711Z,13.14
2023-02-22T04:35:35.473Z,13.18
2023-02-22T04:38:04.328Z,13.20
2023-02-22T04:40:33.605Z,13.16
2023-02-22T04:43:01.534Z,13.17
2023-02-22T04:45:29.424Z,13.14
2023-02-22T04:47:57.969Z,13.14
2023-02-22T04:50:25.973Z,13.11
2023-02-22T04:52:53.865Z,13.09
2023-02-22T04:55:22.511Z,13.08
2023-02-22T04:57:51.801Z,13.08
2023-02-22T05:00:21.806Z,13.08
2023-02-22T05:02:49.999Z,13.07
2023-02-22T05:05:18.288Z,13.09
2023-02-22T05:07:46.167Z,13.08
2023-02-22T05:10:14.302Z,13.08
2023-02-22T05:12:42.176Z,13.11
2023-02-22T05:15:11.907Z,13.11
2023-02-22T05:17:39.750Z,13.10
2023-02-22T05:20:08.657Z,13.11
2023-02-22T05:22:37.275Z,13.09
2023-02-22T05:25:05.467Z,13.04
2023-02-22T05:27:33.364Z,13.05
2023-02-22T05:30:01.224Z,13.03
2023-02-22T05:32:30.494Z,13.03
2023-02-22T05:34:58.369Z,13.00
2023-02-22T05:37:26.326Z,12.97
2023-02-22T05:39:55.715Z,12.93
2023-02-22T05:42:23.665Z,12.90
2023-02-22T05:44:51.633Z,12.84
2023-02-22T05:47:19.542Z,12.83
2023-02-22T05:49:48.808Z,12.80
2023-02-22T05:52:16.668Z,12.78
2023-02-22T05:54:44.540Z,12.78
2023-02-22T05:57:12.412Z,12.77
2023-02-22T05:59:40.612Z,12.76
2023-02-22T06:02:08.597Z,12.73
2023-02-22T06:04:36.548Z,12.72
2023-02-22T06:07:06.519Z,12.71
2023-02-22T06:09:34.399Z,12.70
2023-02-22T06:12:02.297Z,12.72
2023-02-22T06:14:30.171Z,12.73
2023-02-22T06:16:58.602Z,12.71
2023-02-22T06:19:26.470Z,12.72
2023-02-22T06:21:54.982Z,12.74
2023-02-22T06:24:24.348Z,12.72
2023-02-22T06:26:56.931Z,12.69
2023-02-22T06:29:25.102Z,12.68
2023-02-22T06:31:53.066Z,12.67
2023-02-22T06:34:21.976Z,12.67
2023-02-22T06:36:49.871Z,12.62
2023-02-22T06:39:18.912Z,12.58
2023-02-22T06:41:50.538Z,12.57
2023-02-22T06:44:18.432Z,12.56
2023-02-22T06:46:48.479Z,12.51
2023-02-22T06:49:16.398Z,12.41
2023-02-22T06:51:44.232Z,12.37
2023-02-22T06:54:12.094Z,12.30
2023-02-22T06:56:40.033Z,12.25
2023-02-22T06:59:09.522Z,12.20
2023-02-22T07:01:37.471Z,12.15
2023-02-22T07:04:05.615Z,12.08
2023-02-22T07:06:33.460Z,12.05
2023-02-22T07:09:01.335Z,12.02
2023-02-22T07:11:29.362Z,11.89
2023-02-22T07:13:57.258Z,11.77
2023-02-22T07:16:26.579Z,11.68
2023-02-22T07:18:54.711Z,11.62
2023-02-22T07:21:22.556Z,11.58
2023-02-22T07:23:54.116Z,11.53
2023-02-22T07:26:22.031Z,11.51
2023-02-22T07:28:50.022Z,11.44
2023-02-22T07:31:18.996Z,11.41
2023-02-22T07:33:48.617Z,11.42
2023-02-22T07:36:17.949Z,11.38
2023-02-22T07:38:45.884Z,11.40
2023-02-22T07:41:13.790Z,11.44
2023-02-22T07:43:41.735Z,11.50
2023-02-22T07:46:09.647Z,11.55
2023-02-22T07:48:37.819Z,11.54
2023-02-22T07:51:07.390Z,11.59
2023-02-22T07:53:35.334Z,11.63
2023-02-22T07:56:05.170Z,11.68
2023-02-22T07:58:33.429Z,11.73
2023-02-22T08:01:03.738Z,11.78
2023-02-22T08:03:34.316Z,11.83
2023-02-22T08:06:03.063Z,11.80
2023-02-22T08:08:32.348Z,11.75
2023-02-22T08:11:00.222Z,11.78
2023-02-22T08:13:28.166Z,11.78
2023-02-22T08:15:56.258Z,11.83
2023-02-22T08:18:24.674Z,11.85
2023-02-22T08:20:53.031Z,11.87
2023-02-22T08:23:21.284Z,11.90
2023-02-22T08:25:50.521Z,11.95
2023-02-22T08:28:21.663Z,12.01
2023-02-22T08:30:49.832Z,12.09
2023-02-22T08:33:19.533Z,12.15
2023-02-22T08:35:49.656Z,12.22
2023-02-22T08:38:19.311Z,12.32
2023-02-22T08:40:48.482Z,12.36
2023-02-22T08:43:18.083Z,12.42
2023-02-22T08:45:46.128Z,12.40
2023-02-22T08:48:15.139Z,12.46
2023-02-22T08:50:44.428Z,12.48
2023-02-22T08:53:13.596Z,12.50
2023-02-22T08:55:42.092Z,12.47
2023-02-22T08:58:10.465Z,12.58
2023-02-22T09:00:40.446Z,12.66
2023-02-22T09:03:09.093Z,12.69
2023-02-22T09:05:37.636Z,12.71
2023-02-22T09:08:05.923Z,12.73
2023-02-22T09:10:34.680Z,12.81
2023-02-22T09:13:04.013Z,12.86
2023-02-22T09:15:32.059Z,12.87
2023-02-22T09:18:01.579Z,12.82
2023-02-22T09:20:29.603Z,12.79
2023-02-22T09:22:57.783Z,12.72
2023-02-22T09:25:27.258Z,12.63
2023-02-22T09:27:55.478Z,12.58
2023-02-22T09:30:26.110Z,12.62
2023-02-22T09:32:54.598Z,12.76
2023-02-22T09:35:27.304Z,12.83
2023-02-22T09:37:56.349Z,12.87
2023-02-22T09:40:30.076Z,12.83
2023-02-22T09:43:17.538Z,12.75
2023-02-22T09:45:49.917Z,12.65
2023-02-22T09:48:22.195Z,12.58
2023-02-22T09:50:52.810Z,12.55
2023-02-22T09:53:29.542Z,12.49
2023-02-22T09:56:00.181Z,12.57
2023-02-22T09:58:33.475Z,12.61
2023-02-22T10:01:14.441Z,12.61
2023-02-22T10:03:49.534Z,12.63
2023-02-22T10:06:21.732Z,12.71
2023-02-22T10:08:50.182Z,12.81
2023-02-22T10:11:24.402Z,13.07
2023-02-22T10:13:54.913Z,13.33
2023-02-22T10:16:24.189Z,13.40
2023-02-22T10:19:08.560Z,13.48
2023-02-22T10:21:59.277Z,13.58
2023-02-22T10:24:38.365Z,13.57
2023-02-22T10:27:07.133Z,13.55
2023-02-22T10:29:39.964Z,13.53
2023-02-22T10:32:10.559Z,13.60
2023-02-22T10:34:40.923Z,13.56
2023-02-22T10:37:25.536Z,13.38
2023-02-22T10:39:56.940Z,13.24
2023-02-22T10:42:26.745Z,13.22
2023-02-22T10:44:54.611Z,13.21
2023-02-22T10:47:22.638Z,13.17
2023-02-22T10:49:52.386Z,13.13
2023-02-22T10:52:26.023Z,13.12
2023-02-22T10:55:01.124Z,13.13
2023-02-22T10:57:35.036Z,13.17
2023-02-22T11:00:14.459Z,13.23
2023-02-22T11:02:43.089Z,13.11
2023-02-22T11:05:26.414Z,13.24
2023-02-22T11:08:01.011Z,13.23
2023-02-22T11:10:32.210Z,13.24
2023-02-22T11:15:29.570Z,13.24
2023-02-22T11:18:01.337Z,13.37
2023-02-22T11:20:29.894Z,13.61
2023-02-22T11:23:00.983Z,13.74
2023-02-22T11:25:30.360Z,13.89
2023-02-22T11:28:00.248Z,14.09
2023-02-22T11:30:29.415Z,14.25
2023-02-22T11:32:59.057Z,14.32
2023-02-22T11:35:36.242Z,14.29
2023-02-22T11:38:21.176Z,14.26
2023-02-22T11:41:11.186Z,14.16
2023-02-22T11:43:39.083Z,14.23
2023-02-22T11:46:08.503Z,14.31
2023-02-22T11:48:39.481Z,14.37
2023-02-22T11:51:18.454Z,14.52
2023-02-22T11:54:19.535Z,14.36
2023-02-22T11:56:48.282Z,14.41
2023-02-22T11:59:27.875Z,14.74
2023-02-22T12:01:56.961Z,15.14
2023-02-22T12:04:42.099Z,14.91
2023-02-22T12:07:19.049Z,14.77
2023-02-22T12:09:51.524Z,14.88
2023-02-22T12:12:22.303Z,14.87
2023-02-22T12:14:55.453Z,15.13
2023-02-22T12:17:27.552Z,15.34
2023-02-22T12:19:58.816Z,15.20
2023-02-22T12:22:28.288Z,15.36
2023-02-22T12:25:09.857Z,15.56
2023-02-22T12:27:39.652Z,15.61
2023-02-22T12:30:09.625Z,15.40
2023-02-22T12:32:41.770Z,15.17
2023-02-22T12:35:13.503Z,15.05
2023-02-22T12:37:50.430Z,15.01
2023-02-22T12:40:23.575Z,15.02
2023-02-22T12:42:54.811Z,15.06
2023-02-22T12:45:27.589Z,15.04
2023-02-22T12:47:59.271Z,14.97
2023-02-22T12:50:28.743Z,15.07
2023-02-22T12:52:58.942Z,15.35
2023-02-22T12:55:31.679Z,15.42
2023-02-22T12:58:02.266Z,15.36
2023-02-22T13:00:34.452Z,15.31
2023-02-22T13:03:03.218Z,15.27
2023-02-22T13:05:33.478Z,15.17
2023-02-22T13:08:07.815Z,15.01
2023-02-22T13:10:48.532Z,14.82
2023-02-22T13:13:18.786Z,14.68
2023-02-22T13:15:49.154Z,14.60
2023-02-22T13:18:21.285Z,14.59
2023-02-22T13:20:50.352Z,14.60
2023-02-22T13:23:20.886Z,14.52
2023-02-22T13:25:55.253Z,14.38
2023-02-22T13:28:25.725Z,14.29
2023-02-22T13:31:02.449Z,14.24
2023-02-22T13:33:37.975Z,14.17
2023-02-22T13:36:15.704Z,14.10
2023-02-22T13:39:09.973Z,14.03
2023-02-22T13:41:52.974Z,13.93
2023-02-22T13:44:45.707Z,13.82
2023-02-22T13:47:41.033Z,13.73
2023-02-22T13:50:31.561Z,13.76
2023-02-22T13:52:59.496Z,13.81
2023-02-22T13:55:29.987Z,13.89
2023-02-22T13:58:03.141Z,14.10
2023-02-22T14:00:47.600Z,14.20
2023-02-22T14:03:40.559Z,13.93
2023-02-22T14:06:12.609Z,14.47
2023-02-22T14:08:44.792Z,15.28
2023-02-22T14:11:52.182Z,16.10
2023-02-22T14:14:21.473Z,16.30
2023-02-22T14:17:22.097Z,16.49
2023-02-22T14:20:05.721Z,16.30
2023-02-22T14:22:33.809Z,16.17
2023-02-22T14:25:01.678Z,16.06
2023-02-22T14:27:40.393Z,15.92
2023-02-22T14:30:26.072Z,16.05
2023-02-22T14:32:54.228Z,16.14
2023-02-22T14:35:30.052Z,16.20
2023-02-22T14:38:03.916Z,16.05
2023-02-22T14:40:32.404Z,15.94
2023-02-22T14:43:03.029Z,15.97
2023-02-22T14:45:33.928Z,15.94
2023-02-22T14:48:11.726Z,15.76
2023-02-22T14:50:44.985Z,15.66
2023-02-22T14:53:18.256Z,15.51
2023-02-22T14:55:48.926Z,15.33
2023-02-22T14:58:18.780Z,15.19
2023-02-22T15:00:49.242Z,15.06
2023-02-22T15:03:29.117Z,14.88
2023-02-22T15:06:00.152Z,14.67
2023-02-22T15:08:29.246Z,14.49
2023-02-22T15:10:57.985Z,14.39
2023-02-22T15:13:26.852Z,14.35
2023-02-22T15:16:00.610Z,14.40
2023-02-22T15:18:32.708Z,14.50
2023-02-22T15:21:06.944Z,14.62
2023-02-22T15:23:41.718Z,14.76
2023-02-22T15:26:09.855Z,14.90
2023-02-22T15:28:38.341Z,14.69
2023-02-22T15:31:24.975Z,14.97
2023-02-22T15:33:54.774Z,15.15
2023-02-22T15:36:23.376Z,15.23
2023-02-22T15:38:51.618Z,15.23
2023-02-22T15:41:27.905Z,15.19
2023-02-22T15:44:03.415Z,15.12
2023-02-22T15:46:35.200Z,14.96
2023-02-22T15:49:07.591Z,14.77
2023-02-22T15:51:35.650Z,14.51
2023-02-22T15:54:04.255Z,14.22
2023-02-22T15:56:32.542Z,13.99
2023-02-22T15:59:00.922Z,13.87
2023-02-22T16:01:28.872Z,13.70
2023-02-22T16:03:58.820Z,13.52
2023-02-22T16:06:29.985Z,13.28
2023-02-22T16:08:58.140Z,13.15
2023-02-22T16:29:09.834Z,12.66
2023-02-22T16:31:38.855Z,12.76
2023-02-22T16:34:07.579Z,12.75
2023-02-22T16:36:40.358Z,12.74
2023-02-22T16:39:08.439Z,12.72
2023-02-22T16:41:36.293Z,12.72
2023-02-22T16:44:07.833Z,12.70
2023-02-22T16:46:37.956Z,12.68
2023-02-22T16:49:06.083Z,12.57
2023-02-22T16:51:39.751Z,12.47
2023-02-22T16:54:07.749Z,12.45
2023-02-22T16:56:35.653Z,12.44
2023-02-22T16:59:06.187Z,12.43
2023-02-22T17:01:35.494Z,12.44
2023-02-22T17:04:07.473Z,12.41
2023-02-22T17:06:36.111Z,12.33
2023-02-22T17:09:04.084Z,12.24
2023-02-22T17:11:32.224Z,12.18
2023-02-22T17:14:00.146Z,12.08
2023-02-22T17:16:28.676Z,12.04
2023-02-22T17:18:56.652Z,11.98
2023-02-22T17:21:25.939Z,11.95
2023-02-22T17:23:53.831Z,11.85
2023-02-22T17:26:21.738Z,11.76
2023-02-22T17:28:49.772Z,11.68
2023-02-22T17:31:20.332Z,11.66
2023-02-22T17:33:48.243Z,11.63
2023-02-22T17:36:16.504Z,11.54
2023-02-22T17:38:45.929Z,11.59
2023-02-22T17:41:13.815Z,11.57
2023-02-22T17:43:41.689Z,11.53
2023-02-22T17:46:09.634Z,11.49
2023-02-22T17:48:38.299Z,11.41
2023-02-22T17:51:07.247Z,11.36
2023-02-22T17:53:35.284Z,11.29
2023-02-22T17:56:08.101Z,11.23
2023-02-22T17:58:36.134Z,11.17
2023-02-22T18:01:04.484Z,11.09
2023-02-22T18:03:32.488Z,11.05
2023-02-22T18:06:01.101Z,11.02
2023-02-22T18:08:29.905Z,10.99
2023-02-22T18:10:57.823Z,10.98
2023-02-22T18:13:27.769Z,10.95
2023-02-22T18:16:00.055Z,10.97
2023-02-22T18:18:28.350Z,10.93
2023-02-22T18:20:59.782Z,10.89
2023-02-22T18:23:28.904Z,10.89
2023-02-22T18:26:09.569Z,10.90
2023-02-22T18:28:40.248Z,10.92
2023-02-22T18:31:09.141Z,10.95
2023-02-22T18:33:37.334Z,11.00
2023-02-22T18:36:05.825Z,11.05
2023-02-22T18:38:33.703Z,11.09
2023-02-22T18:41:01.737Z,11.15
2023-02-22T18:43:29.773Z,11.19
2023-02-22T18:46:07.513Z,11.24
2023-02-22T18:48:35.436Z,11.27
2023-02-22T18:51:03.563Z,11.27
2023-02-22T18:53:31.473Z,11.26
2023-02-22T18:56:04.221Z,11.29
2023-02-22T18:58:32.892Z,11.28
2023-02-22T19:01:01.156Z,11.27
2023-02-22T19:03:30.578Z,11.30
2023-02-22T19:06:02.232Z,11.32
2023-02-22T19:08:32.574Z,11.31
2023-02-22T19:11:06.404Z,11.32
2023-02-22T19:13:36.158Z,11.31
2023-02-22T19:16:04.339Z,11.30
2023-02-22T19:18:33.768Z,11.38
2023-02-22T19:21:02.537Z,11.26
2023-02-22T19:23:34.385Z,11.25
2023-02-22T19:26:03.553Z,11.20
2023-02-22T19:28:34.187Z,11.09
2023-02-22T19:31:12.725Z,10.96
2023-02-22T19:33:42.109Z,10.86
2023-02-22T19:36:10.460Z,10.77
2023-02-22T19:38:38.372Z,10.67
2023-02-22T19:41:10.496Z,10.67
2023-02-22T19:43:38.437Z,10.65
2023-02-22T19:46:06.811Z,10.62
2023-02-22T19:48:34.762Z,10.59
2023-02-22T19:51:08.161Z,10.55
2023-02-22T19:53:36.173Z,10.52
2023-02-22T19:56:07.093Z,10.51
2023-02-22T19:58:36.766Z,10.48
2023-02-22T20:01:12.319Z,10.48
2023-02-22T20:03:42.025Z,10.45
2023-02-22T20:06:11.504Z,10.30
2023-02-22T20:08:42.251Z,10.40
2023-02-22T20:11:10.499Z,10.38
2023-02-22T20:13:38.454Z,10.36
2023-02-22T20:16:07.606Z,10.36
2023-02-22T20:18:36.642Z,10.38
2023-02-22T20:21:08.189Z,10.42
2023-02-22T20:23:40.169Z,10.42
2023-02-22T20:26:10.339Z,10.41
2023-02-22T20:28:38.200Z,10.42
2023-02-22T20:31:11.252Z,10.45
2023-02-22T20:33:41.667Z,10.48
2023-02-22T20:36:10.878Z,10.51
2023-02-22T20:38:41.158Z,10.52
2023-02-22T20:41:09.399Z,10.54
2023-02-22T20:43:37.391Z,10.54
2023-02-22T20:46:06.309Z,10.54
2023-02-22T20:48:34.378Z,10.55
2023-02-22T20:51:06.372Z,10.60
2023-02-22T20:53:34.559Z,10.60
2023-02-22T20:56:04.344Z,10.60
2023-02-22T20:58:32.365Z,10.63
2023-02-22T21:01:05.232Z,10.64
2023-02-22T21:03:33.802Z,10.65
2023-02-22T21:06:01.762Z,10.63
2023-02-22T21:08:31.235Z,10.64
2023-02-22T21:10:59.305Z,10.53
2023-02-22T21:13:28.570Z,10.67
2023-02-22T21:15:56.489Z,10.71
2023-02-22T21:18:25.127Z,10.75
2023-02-22T21:20:53.804Z,10.79
2023-02-22T21:23:21.671Z,10.84
2023-02-22T21:25:53.082Z,10.86
2023-02-22T21:28:21.045Z,10.87
2023-02-22T21:30:50.368Z,10.91
2023-02-22T21:33:18.309Z,10.94
2023-02-22T21:35:47.252Z,10.95
2023-02-22T21:38:15.490Z,10.93
2023-02-22T21:40:44.581Z,10.95
2023-02-22T21:43:13.140Z,10.95
2023-02-22T21:45:41.042Z,10.92
2023-02-22T21:48:10.382Z,10.90
2023-02-22T21:50:38.268Z,10.85
2023-02-22T21:53:07.484Z,10.83
2023-02-22T21:55:35.815Z,10.80
2023-02-22T21:58:03.730Z,10.79
2023-02-22T22:00:38.169Z,10.81
2023-02-22T22:03:08.881Z,10.85
2023-02-22T22:05:45.184Z,10.90
2023-02-22T22:08:19.365Z,10.88
2023-02-22T22:10:55.361Z,10.88
2023-02-22T22:13:23.382Z,10.91
2023-02-22T22:15:51.437Z,10.94
2023-02-22T22:18:19.419Z,10.98
2023-02-22T22:20:51.649Z,11.00
2023-02-22T22:23:19.614Z,11.02
2023-02-22T22:25:51.050Z,11.02
2023-02-22T22:28:18.922Z,11.00
2023-02-22T22:30:46.972Z,11.00
2023-02-22T22:33:17.232Z,11.01
2023-02-22T22:35:45.219Z,11.02
2023-02-22T22:38:15.489Z,11.01
2023-02-22T22:40:43.456Z,11.03
2023-02-22T22:43:11.400Z,11.00
2023-02-22T22:45:40.083Z,10.98
2023-02-22T22:48:08.466Z,10.98
2023-02-22T22:50:37.692Z,10.95
2023-02-22T22:53:05.773Z,10.91
2023-02-22T22:55:35.413Z,10.89
2023-02-22T22:58:03.327Z,10.82
2023-02-22T23:00:32.610Z,10.77
2023-02-22T23:03:00.578Z,10.76
2023-02-22T23:05:29.380Z,10.79
2023-02-22T23:07:57.444Z,10.81
2023-02-22T23:10:28.148Z,10.85
2023-02-22T23:12:57.555Z,10.88
2023-02-22T23:15:25.646Z,10.91
2023-02-22T23:17:56.082Z,10.95
2023-02-22T23:20:26.280Z,10.97
2023-02-22T23:22:54.263Z,10.96
2023-02-22T23:25:22.238Z,10.96
2023-02-22T23:27:50.275Z,10.92
2023-02-22T23:30:20.222Z,10.90
2023-02-22T23:32:48.425Z,10.92
2023-02-22T23:35:16.508Z,10.98
2023-02-22T23:37:46.247Z,11.02
2023-02-22T23:40:17.035Z,11.07
2023-02-22T23:42:49.117Z,11.03
2023-02-22T23:45:22.777Z,10.96
2023-02-22T23:47:54.871Z,11.01
2023-02-22T23:50:24.204Z,10.99
2023-02-22T23:52:56.958Z,10.95
2023-02-22T23:55:25.285Z,10.93
2023-02-22T23:57:57.127Z,10.93
